createdAt,value
2023-09-27T00:00:14.000Z,88.0
2023-09-27T00:00:34.000Z,88.0
2023-09-27T00:00:54.000Z,88.0
2023-09-27T00:01:14.000Z,88.0
2023-09-27T00:01:34.000Z,88.0
2023-09-27T00:01:54.000Z,88.0
2023-09-27T00:02:14.000Z,88.0
2023-09-27T00:02:34.000Z,88.0
2023-09-27T00:02:54.000Z,88.0
2023-09-27T00:03:14.000Z,88.0
2023-09-27T00:03:34.000Z,88.0
2023-09-27T00:03:54.000Z,88.0
2023-09-27T00:04:14.000Z,88.0
2023-09-27T00:04:34.000Z,88.0
2023-09-27T00:04:54.000Z,88.0
2023-09-27T00:05:13.000Z,88.0
2023-09-27T00:05:33.000Z,88.0
2023-09-27T00:05:53.000Z,88.0
2023-09-27T00:06:13.000Z,88.0
2023-09-27T00:06:33.000Z,88.0
2023-09-27T00:07:13.000Z,88.0
2023-09-27T00:07:33.000Z,88.0
2023-09-27T00:07:53.000Z,88.0
2023-09-27T00:08:13.000Z,88.0
2023-09-27T00:08:33.000Z,88.0
2023-09-27T00:08:54.000Z,88.0
2023-09-27T00:09:13.000Z,88.0
2023-09-27T00:09:33.000Z,88.0
2023-09-27T00:10:13.000Z,88.0
2023-09-27T00:10:33.000Z,88.0
2023-09-27T00:10:53.000Z,88.0
2023-09-27T00:11:13.000Z,88.0
2023-09-27T00:11:33.000Z,88.0
2023-09-27T00:11:53.000Z,88.0
2023-09-27T00:12:13.000Z,88.0
2023-09-27T00:12:33.000Z,88.0
2023-09-27T00:12:53.000Z,88.0
2023-09-27T00:13:13.000Z,88.0
2023-09-27T00:13:33.000Z,88.0
2023-09-27T00:13:54.000Z,88.0
2023-09-27T00:14:13.000Z,88.0
2023-09-27T00:14:33.000Z,88.0
2023-09-27T00:14:54.000Z,88.0
2023-09-27T00:15:13.000Z,88.0
2023-09-27T00:15:33.000Z,88.0
2023-09-27T00:15:54.000Z,88.0
2023-09-27T00:16:13.000Z,88.0
2023-09-27T00:16:34.000Z,88.0
2023-09-27T00:16:54.000Z,88.0
2023-09-27T00:17:14.000Z,88.0
2023-09-27T00:17:34.000Z,88.0
2023-09-27T00:17:54.000Z,88.0
2023-09-27T00:18:14.000Z,88.0
2023-09-27T00:18:34.000Z,88.0
2023-09-27T00:18:54.000Z,88.0
2023-09-27T00:19:14.000Z,88.0
2023-09-27T00:19:34.000Z,88.0
2023-09-27T00:19:54.000Z,88.0
2023-09-27T00:20:14.000Z,88.0
2023-09-27T00:20:34.000Z,88.0
2023-09-27T00:20:54.000Z,88.0
2023-09-27T00:21:14.000Z,88.0
2023-09-27T00:21:34.000Z,89.0
2023-09-27T00:21:54.000Z,89.0
2023-09-27T00:22:14.000Z,89.0
2023-09-27T00:22:34.000Z,89.0
2023-09-27T00:22:54.000Z,89.0
2023-09-27T00:23:14.000Z,89.0
2023-09-27T00:23:34.000Z,89.0
2023-09-27T00:23:54.000Z,89.0
2023-09-27T00:24:14.000Z,89.0
2023-09-27T00:24:34.000Z,89.0
2023-09-27T00:24:54.000Z,88.0
2023-09-27T00:25:13.000Z,88.0
2023-09-27T00:25:33.000Z,88.0
2023-09-27T00:25:53.000Z,89.0
2023-09-27T00:26:13.000Z,89.0
2023-09-27T00:26:33.000Z,89.0
2023-09-27T00:27:13.000Z,89.0
2023-09-27T00:27:33.000Z,89.0
2023-09-27T00:27:53.000Z,89.0
2023-09-27T00:28:13.000Z,89.0
2023-09-27T00:28:33.000Z,89.0
2023-09-27T00:28:54.000Z,89.0
2023-09-27T00:29:13.000Z,89.0
2023-09-27T00:29:33.000Z,89.0
2023-09-27T00:30:13.000Z,90.0
2023-09-27T00:30:33.000Z,90.0
2023-09-27T00:30:53.000Z,90.0
2023-09-27T00:31:13.000Z,90.0
2023-09-27T00:31:33.000Z,90.0
2023-09-27T00:31:54.000Z,90.0
2023-09-27T00:32:13.000Z,90.0
2023-09-27T00:32:33.000Z,90.0
2023-09-27T00:32:54.000Z,90.0
2023-09-27T00:33:13.000Z,90.0
2023-09-27T00:33:33.000Z,90.0
2023-09-27T00:34:13.000Z,90.0
2023-09-27T00:34:33.000Z,90.0
2023-09-27T00:34:54.000Z,90.0
2023-09-27T00:35:13.000Z,90.0
2023-09-27T00:35:33.000Z,90.0
2023-09-27T00:35:53.000Z,90.0
2023-09-27T00:36:13.000Z,90.0
2023-09-27T00:36:33.000Z,90.0
2023-09-27T00:36:54.000Z,90.0
2023-09-27T00:37:13.000Z,90.0
2023-09-27T00:37:33.000Z,90.0
2023-09-27T00:37:54.000Z,90.0
2023-09-27T00:38:13.000Z,90.0
2023-09-27T00:38:33.000Z,90.0
2023-09-27T00:38:54.000Z,90.0
2023-09-27T00:39:13.000Z,90.0
2023-09-27T00:39:34.000Z,90.0
2023-09-27T00:40:14.000Z,90.0
2023-09-27T00:40:34.000Z,90.0
2023-09-27T00:40:54.000Z,90.0
2023-09-27T00:41:14.000Z,90.0
2023-09-27T00:41:34.000Z,90.0
2023-09-27T00:42:14.000Z,90.0
2023-09-27T00:42:34.000Z,90.0
2023-09-27T00:42:54.000Z,90.0
2023-09-27T00:43:14.000Z,90.0
2023-09-27T00:43:34.000Z,90.0
2023-09-27T00:43:54.000Z,90.0
2023-09-27T00:44:14.000Z,90.0
2023-09-27T00:44:34.000Z,90.0
2023-09-27T00:44:54.000Z,90.0
2023-09-27T00:45:14.000Z,90.0
2023-09-27T00:45:34.000Z,90.0
2023-09-27T00:45:54.000Z,90.0
2023-09-27T00:46:14.000Z,91.0
2023-09-27T00:46:34.000Z,91.0
2023-09-27T00:46:54.000Z,91.0
2023-09-27T00:47:14.000Z,91.0
2023-09-27T00:47:34.000Z,91.0
2023-09-27T00:47:54.000Z,91.0
2023-09-27T00:48:14.000Z,91.0
2023-09-27T00:48:34.000Z,91.0
2023-09-27T00:48:55.000Z,91.0
2023-09-27T00:49:14.000Z,91.0
2023-09-27T00:49:34.000Z,91.0
2023-09-27T00:50:13.000Z,91.0
2023-09-27T00:50:33.000Z,91.0
2023-09-27T00:50:53.000Z,91.0
2023-09-27T00:51:13.000Z,91.0
2023-09-27T00:51:33.000Z,91.0
2023-09-27T00:51:53.000Z,91.0
2023-09-27T00:52:13.000Z,90.0
2023-09-27T00:52:33.000Z,90.0
2023-09-27T00:52:53.000Z,90.0
2023-09-27T00:53:13.000Z,90.0
2023-09-27T00:53:33.000Z,90.0
2023-09-27T00:53:53.000Z,90.0
2023-09-27T00:54:13.000Z,90.0
2023-09-27T00:54:33.000Z,90.0
2023-09-27T00:54:53.000Z,90.0
2023-09-27T00:55:13.000Z,90.0
2023-09-27T00:55:33.000Z,90.0
2023-09-27T00:55:53.000Z,90.0
2023-09-27T00:56:13.000Z,90.0
2023-09-27T00:56:33.000Z,90.0
2023-09-27T00:57:13.000Z,90.0
2023-09-27T00:57:33.000Z,90.0
2023-09-27T00:57:53.000Z,90.0
2023-09-27T00:58:13.000Z,90.0
2023-09-27T00:58:33.000Z,90.0
2023-09-27T00:58:53.000Z,90.0
2023-09-27T00:59:13.000Z,90.0
2023-09-27T00:59:33.000Z,90.0
2023-09-27T00:59:53.000Z,90.0
2023-09-27T01:00:13.000Z,90.0
2023-09-27T01:00:33.000Z,90.0
2023-09-27T01:00:53.000Z,90.0
2023-09-27T01:01:13.000Z,90.0
2023-09-27T01:01:33.000Z,90.0
2023-09-27T01:01:54.000Z,90.0
2023-09-27T01:02:13.000Z,90.0
2023-09-27T01:02:33.000Z,90.0
2023-09-27T01:02:54.000Z,90.0
2023-09-27T01:03:13.000Z,90.0
2023-09-27T01:03:33.000Z,90.0
2023-09-27T01:04:13.000Z,90.0
2023-09-27T01:04:33.000Z,90.0
2023-09-27T01:04:54.000Z,90.0
2023-09-27T01:05:13.000Z,90.0
2023-09-27T01:05:33.000Z,90.0
2023-09-27T01:05:54.000Z,90.0
2023-09-27T01:06:14.000Z,90.0
2023-09-27T01:06:34.000Z,90.0
2023-09-27T01:06:54.000Z,90.0
2023-09-27T01:07:14.000Z,90.0
2023-09-27T01:07:34.000Z,90.0
2023-09-27T01:07:54.000Z,90.0
2023-09-27T01:08:14.000Z,90.0
2023-09-27T01:08:34.000Z,90.0
2023-09-27T01:08:55.000Z,90.0
2023-09-27T01:09:14.000Z,90.0
2023-09-27T01:09:34.000Z,90.0
2023-09-27T01:10:14.000Z,90.0
2023-09-27T01:10:34.000Z,90.0
2023-09-27T01:10:54.000Z,90.0
2023-09-27T01:11:14.000Z,90.0
2023-09-27T01:11:34.000Z,90.0
2023-09-27T01:11:54.000Z,90.0
2023-09-27T01:12:14.000Z,90.0
2023-09-27T01:12:34.000Z,90.0
2023-09-27T01:12:54.000Z,90.0
2023-09-27T01:13:14.000Z,90.0
2023-09-27T01:13:34.000Z,90.0
2023-09-27T01:13:54.000Z,90.0
2023-09-27T01:14:14.000Z,90.0
2023-09-27T01:14:34.000Z,90.0
2023-09-27T01:14:54.000Z,90.0
2023-09-27T01:15:14.000Z,89.0
2023-09-27T01:15:34.000Z,89.0
2023-09-27T01:15:53.000Z,89.0
2023-09-27T01:16:13.000Z,89.0
2023-09-27T01:16:33.000Z,89.0
2023-09-27T01:16:53.000Z,89.0
2023-09-27T01:17:13.000Z,89.0
2023-09-27T01:17:33.000Z,89.0
2023-09-27T01:17:53.000Z,89.0
2023-09-27T01:18:13.000Z,89.0
2023-09-27T01:18:33.000Z,89.0
2023-09-27T01:18:54.000Z,89.0
2023-09-27T01:19:13.000Z,89.0
2023-09-27T01:19:33.000Z,89.0
2023-09-27T01:20:13.000Z,89.0
2023-09-27T01:20:33.000Z,89.0
2023-09-27T01:20:53.000Z,89.0
2023-09-27T01:21:13.000Z,89.0
2023-09-27T01:21:33.000Z,89.0
2023-09-27T01:21:53.000Z,89.0
2023-09-27T01:22:13.000Z,89.0
2023-09-27T01:22:33.000Z,89.0
2023-09-27T01:22:53.000Z,89.0
2023-09-27T01:23:13.000Z,89.0
2023-09-27T01:23:33.000Z,89.0
2023-09-27T01:23:53.000Z,89.0
2023-09-27T01:24:13.000Z,89.0
2023-09-27T01:24:33.000Z,89.0
2023-09-27T01:24:54.000Z,89.0
2023-09-27T01:25:13.000Z,89.0
2023-09-27T01:25:33.000Z,89.0
2023-09-27T01:25:54.000Z,89.0
2023-09-27T01:26:13.000Z,89.0
2023-09-27T01:26:33.000Z,90.0
2023-09-27T01:26:54.000Z,90.0
2023-09-27T01:27:13.000Z,90.0
2023-09-27T01:27:33.000Z,90.0
2023-09-27T01:27:54.000Z,90.0
2023-09-27T01:28:13.000Z,90.0
2023-09-27T01:28:33.000Z,90.0
2023-09-27T01:28:55.000Z,90.0
2023-09-27T01:29:13.000Z,90.0
2023-09-27T01:29:33.000Z,90.0
2023-09-27T01:30:13.000Z,90.0
2023-09-27T01:30:34.000Z,90.0
2023-09-27T01:30:54.000Z,90.0
2023-09-27T01:31:14.000Z,90.0
2023-09-27T01:31:34.000Z,90.0
2023-09-27T01:31:54.000Z,90.0
2023-09-27T01:32:14.000Z,90.0
2023-09-27T01:32:34.000Z,90.0
2023-09-27T01:32:54.000Z,90.0
2023-09-27T01:33:14.000Z,90.0
2023-09-27T01:33:34.000Z,90.0
2023-09-27T01:33:54.000Z,90.0
2023-09-27T01:34:14.000Z,90.0
2023-09-27T01:34:34.000Z,90.0
2023-09-27T01:34:54.000Z,90.0
2023-09-27T01:35:14.000Z,90.0
2023-09-27T01:35:34.000Z,90.0
2023-09-27T01:35:54.000Z,90.0
2023-09-27T01:36:14.000Z,90.0
2023-09-27T01:36:34.000Z,90.0
2023-09-27T01:36:54.000Z,90.0
2023-09-27T01:37:14.000Z,90.0
2023-09-27T01:37:34.000Z,90.0
2023-09-27T01:37:54.000Z,91.0
2023-09-27T01:38:14.000Z,91.0
2023-09-27T01:38:34.000Z,91.0
2023-09-27T01:38:55.000Z,91.0
2023-09-27T01:39:14.000Z,91.0
2023-09-27T01:39:34.000Z,91.0
2023-09-27T01:40:13.000Z,91.0
2023-09-27T01:40:33.000Z,91.0
2023-09-27T01:40:53.000Z,91.0
2023-09-27T01:41:13.000Z,91.0
2023-09-27T01:41:33.000Z,91.0
2023-09-27T01:41:53.000Z,91.0
2023-09-27T01:42:13.000Z,90.0
2023-09-27T01:42:33.000Z,90.0
2023-09-27T01:42:53.000Z,90.0
2023-09-27T01:43:13.000Z,90.0
2023-09-27T01:43:33.000Z,90.0
2023-09-27T01:43:53.000Z,90.0
2023-09-27T01:44:13.000Z,90.0
2023-09-27T01:44:33.000Z,90.0
2023-09-27T01:44:53.000Z,90.0
2023-09-27T01:45:13.000Z,90.0
2023-09-27T01:45:33.000Z,90.0
2023-09-27T01:45:53.000Z,90.0
2023-09-27T01:46:13.000Z,90.0
2023-09-27T01:46:33.000Z,90.0
2023-09-27T01:46:53.000Z,90.0
2023-09-27T01:47:13.000Z,90.0
2023-09-27T01:47:33.000Z,90.0
2023-09-27T01:47:54.000Z,90.0
2023-09-27T01:48:13.000Z,90.0
2023-09-27T01:48:33.000Z,90.0
2023-09-27T01:48:54.000Z,90.0
2023-09-27T01:49:13.000Z,90.0
2023-09-27T01:49:33.000Z,90.0
2023-09-27T01:50:13.000Z,90.0
2023-09-27T01:50:33.000Z,90.0
2023-09-27T01:50:54.000Z,90.0
2023-09-27T01:51:13.000Z,90.0
2023-09-27T01:51:33.000Z,90.0
2023-09-27T01:51:54.000Z,90.0
2023-09-27T01:52:13.000Z,90.0
2023-09-27T01:52:33.000Z,90.0
2023-09-27T01:52:54.000Z,90.0
2023-09-27T01:53:14.000Z,90.0
2023-09-27T01:53:34.000Z,90.0
2023-09-27T01:53:54.000Z,90.0
2023-09-27T01:54:14.000Z,90.0
2023-09-27T01:54:34.000Z,90.0
2023-09-27T01:54:54.000Z,90.0
2023-09-27T01:55:14.000Z,90.0
2023-09-27T01:55:34.000Z,90.0
2023-09-27T01:55:54.000Z,90.0
2023-09-27T01:56:14.000Z,90.0
2023-09-27T01:56:34.000Z,90.0
2023-09-27T01:56:54.000Z,90.0
2023-09-27T01:57:14.000Z,90.0
2023-09-27T01:57:34.000Z,90.0
2023-09-27T01:57:54.000Z,90.0
2023-09-27T01:58:14.000Z,90.0
2023-09-27T01:58:34.000Z,90.0
2023-09-27T01:58:55.000Z,90.0
2023-09-27T01:59:14.000Z,90.0
2023-09-27T01:59:34.000Z,89.0
2023-09-27T02:00:14.000Z,90.0
2023-09-27T02:00:34.000Z,89.0
2023-09-27T02:00:54.000Z,89.0
2023-09-27T02:01:14.000Z,89.0
2023-09-27T02:01:34.000Z,90.0
2023-09-27T02:01:54.000Z,90.0
2023-09-27T02:02:13.000Z,89.0
2023-09-27T02:02:33.000Z,89.0
2023-09-27T02:02:53.000Z,90.0
2023-09-27T02:03:13.000Z,90.0
2023-09-27T02:03:33.000Z,89.0
2023-09-27T02:03:53.000Z,89.0
2023-09-27T02:04:13.000Z,89.0
2023-09-27T02:04:33.000Z,89.0
2023-09-27T02:04:53.000Z,89.0
2023-09-27T02:05:13.000Z,89.0
2023-09-27T02:05:33.000Z,90.0
2023-09-27T02:05:53.000Z,90.0
2023-09-27T02:06:13.000Z,90.0
2023-09-27T02:06:33.000Z,90.0
2023-09-27T02:07:13.000Z,90.0
2023-09-27T02:07:33.000Z,90.0
2023-09-27T02:07:53.000Z,90.0
2023-09-27T02:08:13.000Z,90.0
2023-09-27T02:08:33.000Z,90.0
2023-09-27T02:08:54.000Z,90.0
2023-09-27T02:09:13.000Z,91.0
2023-09-27T02:09:33.000Z,91.0
2023-09-27T02:10:13.000Z,91.0
2023-09-27T02:10:33.000Z,91.0
2023-09-27T02:10:54.000Z,91.0
2023-09-27T02:11:13.000Z,91.0
2023-09-27T02:11:33.000Z,91.0
2023-09-27T02:12:13.000Z,91.0
2023-09-27T02:12:33.000Z,91.0
2023-09-27T02:12:53.000Z,91.0
2023-09-27T02:13:13.000Z,91.0
2023-09-27T02:13:33.000Z,91.0
2023-09-27T02:13:54.000Z,91.0
2023-09-27T02:14:13.000Z,91.0
2023-09-27T02:14:33.000Z,91.0
2023-09-27T02:15:13.000Z,91.0
2023-09-27T02:15:33.000Z,90.0
2023-09-27T02:15:54.000Z,90.0
2023-09-27T02:16:14.000Z,90.0
2023-09-27T02:16:34.000Z,90.0
2023-09-27T02:16:54.000Z,90.0
2023-09-27T02:17:14.000Z,90.0
2023-09-27T02:17:34.000Z,91.0
2023-09-27T02:17:54.000Z,91.0
2023-09-27T02:18:14.000Z,91.0
2023-09-27T02:18:34.000Z,91.0
2023-09-27T02:18:55.000Z,92.0
2023-09-27T02:19:14.000Z,92.0
2023-09-27T02:19:34.000Z,92.0
2023-09-27T02:20:14.000Z,93.0
2023-09-27T02:20:34.000Z,93.0
2023-09-27T02:20:54.000Z,93.0
2023-09-27T02:21:14.000Z,92.0
2023-09-27T02:21:34.000Z,92.0
2023-09-27T02:21:54.000Z,92.0
2023-09-27T02:22:14.000Z,92.0
2023-09-27T02:22:34.000Z,92.0
2023-09-27T02:22:54.000Z,92.0
2023-09-27T02:23:14.000Z,91.0
2023-09-27T02:23:34.000Z,91.0
2023-09-27T02:23:54.000Z,91.0
2023-09-27T02:24:14.000Z,90.0
2023-09-27T02:24:34.000Z,90.0
2023-09-27T02:24:53.000Z,89.0
2023-09-27T02:25:13.000Z,88.0
2023-09-27T02:25:33.000Z,88.0
2023-09-27T02:25:53.000Z,87.0
2023-09-27T02:26:13.000Z,87.0
2023-09-27T02:26:33.000Z,88.0
2023-09-27T02:27:13.000Z,88.0
2023-09-27T02:27:33.000Z,88.0
2023-09-27T02:27:53.000Z,89.0
2023-09-27T02:28:13.000Z,89.0
2023-09-27T02:28:33.000Z,89.0
2023-09-27T02:28:54.000Z,89.0
2023-09-27T02:29:13.000Z,90.0
2023-09-27T02:29:33.000Z,90.0
2023-09-27T02:30:13.000Z,91.0
2023-09-27T02:30:33.000Z,91.0
2023-09-27T02:30:53.000Z,90.0
2023-09-27T02:31:13.000Z,90.0
2023-09-27T02:31:33.000Z,90.0
2023-09-27T02:31:53.000Z,91.0
2023-09-27T02:32:13.000Z,91.0
2023-09-27T02:32:33.000Z,91.0
2023-09-27T02:32:54.000Z,91.0
2023-09-27T02:33:13.000Z,91.0
2023-09-27T02:33:33.000Z,91.0
2023-09-27T02:33:53.000Z,91.0
2023-09-27T02:34:13.000Z,90.0
2023-09-27T02:34:33.000Z,90.0
2023-09-27T02:34:54.000Z,90.0
2023-09-27T02:35:13.000Z,90.0
2023-09-27T02:35:33.000Z,90.0
2023-09-27T02:35:54.000Z,90.0
2023-09-27T02:36:13.000Z,90.0
2023-09-27T02:36:33.000Z,90.0
2023-09-27T02:36:54.000Z,90.0
2023-09-27T02:37:13.000Z,90.0
2023-09-27T02:37:33.000Z,90.0
2023-09-27T02:37:54.000Z,90.0
2023-09-27T02:38:13.000Z,90.0
2023-09-27T02:38:34.000Z,91.0
2023-09-27T02:38:54.000Z,91.0
2023-09-27T02:39:14.000Z,91.0
2023-09-27T02:39:34.000Z,90.0
2023-09-27T02:40:14.000Z,90.0
2023-09-27T02:40:34.000Z,90.0
2023-09-27T02:40:54.000Z,90.0
2023-09-27T02:41:14.000Z,90.0
2023-09-27T02:41:34.000Z,90.0
2023-09-27T02:42:14.000Z,90.0
2023-09-27T02:42:34.000Z,90.0
2023-09-27T02:42:54.000Z,90.0
2023-09-27T02:43:14.000Z,90.0
2023-09-27T02:43:34.000Z,90.0
2023-09-27T02:43:54.000Z,90.0
2023-09-27T02:44:14.000Z,90.0
2023-09-27T02:44:34.000Z,90.0
2023-09-27T02:44:54.000Z,90.0
2023-09-27T02:45:14.000Z,90.0
2023-09-27T02:45:34.000Z,90.0
2023-09-27T02:45:54.000Z,90.0
2023-09-27T02:46:14.000Z,90.0
2023-09-27T02:46:34.000Z,90.0
2023-09-27T02:46:54.000Z,90.0
2023-09-27T02:47:14.000Z,90.0
2023-09-27T02:47:34.000Z,90.0
2023-09-27T02:47:54.000Z,90.0
2023-09-27T02:48:13.000Z,90.0
2023-09-27T02:48:33.000Z,90.0
2023-09-27T02:48:54.000Z,90.0
2023-09-27T02:49:13.000Z,90.0
2023-09-27T02:49:33.000Z,90.0
2023-09-27T02:50:13.000Z,90.0
2023-09-27T02:50:33.000Z,90.0
2023-09-27T02:50:53.000Z,90.0
2023-09-27T02:51:13.000Z,90.0
2023-09-27T02:51:33.000Z,90.0
2023-09-27T02:51:53.000Z,90.0
2023-09-27T02:52:13.000Z,90.0
2023-09-27T02:52:33.000Z,90.0
2023-09-27T02:52:53.000Z,90.0
2023-09-27T02:53:13.000Z,90.0
2023-09-27T02:53:33.000Z,90.0
2023-09-27T02:53:53.000Z,90.0
2023-09-27T02:54:13.000Z,90.0
2023-09-27T02:54:33.000Z,90.0
2023-09-27T02:54:53.000Z,90.0
2023-09-27T02:55:13.000Z,90.0
2023-09-27T02:55:33.000Z,90.0
2023-09-27T02:55:54.000Z,90.0
2023-09-27T02:56:13.000Z,90.0
2023-09-27T02:56:33.000Z,90.0
2023-09-27T02:57:13.000Z,90.0
2023-09-27T02:57:33.000Z,90.0
2023-09-27T02:57:56.000Z,90.0
2023-09-27T02:58:13.000Z,90.0
2023-09-27T02:58:33.000Z,90.0
2023-09-27T02:59:13.000Z,90.0
2023-09-27T02:59:33.000Z,90.0
2023-09-27T02:59:54.000Z,90.0
2023-09-27T03:00:13.000Z,90.0
2023-09-27T03:00:33.000Z,90.0
2023-09-27T03:00:54.000Z,90.0
2023-09-27T03:01:13.000Z,90.0
2023-09-27T03:01:33.000Z,89.0
2023-09-27T03:01:54.000Z,89.0
2023-09-27T03:02:14.000Z,89.0
2023-09-27T03:02:34.000Z,89.0
2023-09-27T03:02:54.000Z,89.0
2023-09-27T03:03:14.000Z,89.0
2023-09-27T03:03:34.000Z,89.0
2023-09-27T03:03:54.000Z,89.0
2023-09-27T03:04:14.000Z,89.0
2023-09-27T03:04:34.000Z,89.0
2023-09-27T03:04:54.000Z,89.0
2023-09-27T03:05:14.000Z,89.0
2023-09-27T03:05:34.000Z,89.0
2023-09-27T03:06:14.000Z,89.0
2023-09-27T03:06:34.000Z,89.0
2023-09-27T03:06:54.000Z,89.0
2023-09-27T03:07:14.000Z,89.0
2023-09-27T03:07:34.000Z,89.0
2023-09-27T03:07:54.000Z,90.0
2023-09-27T03:08:14.000Z,90.0
2023-09-27T03:08:34.000Z,90.0
2023-09-27T03:08:55.000Z,90.0
2023-09-27T03:09:14.000Z,90.0
2023-09-27T03:09:34.000Z,90.0
2023-09-27T03:10:14.000Z,90.0
2023-09-27T03:10:34.000Z,90.0
2023-09-27T03:10:54.000Z,90.0
2023-09-27T03:11:14.000Z,90.0
2023-09-27T03:11:34.000Z,90.0
2023-09-27T03:11:54.000Z,90.0
2023-09-27T03:12:14.000Z,90.0
2023-09-27T03:12:34.000Z,90.0
2023-09-27T03:12:54.000Z,90.0
2023-09-27T03:13:13.000Z,90.0
2023-09-27T03:13:33.000Z,90.0
2023-09-27T03:13:53.000Z,90.0
2023-09-27T03:14:13.000Z,90.0
2023-09-27T03:14:33.000Z,90.0
2023-09-27T03:15:13.000Z,90.0
2023-09-27T03:15:33.000Z,90.0
2023-09-27T03:15:53.000Z,90.0
2023-09-27T03:16:13.000Z,90.0
2023-09-27T03:16:33.000Z,90.0
2023-09-27T03:17:13.000Z,90.0
2023-09-27T03:17:33.000Z,90.0
2023-09-27T03:17:53.000Z,90.0
2023-09-27T03:18:13.000Z,90.0
2023-09-27T03:18:33.000Z,89.0
2023-09-27T03:18:54.000Z,89.0
2023-09-27T03:19:13.000Z,89.0
2023-09-27T03:19:33.000Z,89.0
2023-09-27T03:19:53.000Z,89.0
2023-09-27T03:20:13.000Z,89.0
2023-09-27T03:20:33.000Z,89.0
2023-09-27T03:21:13.000Z,89.0
2023-09-27T03:21:33.000Z,89.0
2023-09-27T03:21:53.000Z,89.0
2023-09-27T03:22:13.000Z,89.0
2023-09-27T03:22:33.000Z,89.0
2023-09-27T03:22:53.000Z,89.0
2023-09-27T03:23:13.000Z,89.0
2023-09-27T03:23:33.000Z,89.0
2023-09-27T03:23:53.000Z,89.0
2023-09-27T03:24:13.000Z,89.0
2023-09-27T03:24:33.000Z,89.0
2023-09-27T03:24:53.000Z,89.0
2023-09-27T03:25:13.000Z,89.0
2023-09-27T03:25:33.000Z,89.0
2023-09-27T03:25:53.000Z,89.0
2023-09-27T03:26:13.000Z,89.0
2023-09-27T03:26:33.000Z,89.0
2023-09-27T03:26:53.000Z,89.0
2023-09-27T03:27:13.000Z,90.0
2023-09-27T03:27:33.000Z,90.0
2023-09-27T03:27:53.000Z,90.0
2023-09-27T03:28:13.000Z,90.0
2023-09-27T03:28:33.000Z,90.0
2023-09-27T03:28:54.000Z,90.0
2023-09-27T03:29:13.000Z,90.0
2023-09-27T03:29:33.000Z,89.0
2023-09-27T03:30:13.000Z,89.0
2023-09-27T03:30:33.000Z,89.0
2023-09-27T03:30:54.000Z,89.0
2023-09-27T03:31:13.000Z,89.0
2023-09-27T03:31:33.000Z,89.0
2023-09-27T03:31:54.000Z,89.0
2023-09-27T03:32:13.000Z,89.0
2023-09-27T03:32:33.000Z,89.0
2023-09-27T03:32:54.000Z,89.0
2023-09-27T03:33:13.000Z,89.0
2023-09-27T03:33:33.000Z,89.0
2023-09-27T03:33:54.000Z,89.0
2023-09-27T03:34:13.000Z,89.0
2023-09-27T03:34:34.000Z,89.0
2023-09-27T03:34:54.000Z,89.0
2023-09-27T03:35:14.000Z,89.0
2023-09-27T03:35:34.000Z,89.0
2023-09-27T03:35:54.000Z,89.0
2023-09-27T03:36:14.000Z,89.0
2023-09-27T03:36:34.000Z,89.0
2023-09-27T03:36:54.000Z,89.0
2023-09-27T03:37:14.000Z,89.0
2023-09-27T03:37:34.000Z,89.0
2023-09-27T03:37:54.000Z,90.0
2023-09-27T03:38:14.000Z,90.0
2023-09-27T03:38:34.000Z,90.0
2023-09-27T03:38:54.000Z,90.0
2023-09-27T03:39:14.000Z,90.0
2023-09-27T03:39:34.000Z,90.0
2023-09-27T03:40:14.000Z,90.0
2023-09-27T03:40:34.000Z,90.0
2023-09-27T03:40:54.000Z,90.0
2023-09-27T03:41:14.000Z,90.0
2023-09-27T03:41:34.000Z,90.0
2023-09-27T03:41:54.000Z,90.0
2023-09-27T03:42:14.000Z,90.0
2023-09-27T03:42:34.000Z,90.0
2023-09-27T03:42:54.000Z,90.0
2023-09-27T03:43:14.000Z,90.0
2023-09-27T03:43:34.000Z,89.0
2023-09-27T03:43:54.000Z,89.0
2023-09-27T03:44:14.000Z,89.0
2023-09-27T03:44:34.000Z,90.0
2023-09-27T03:45:14.000Z,90.0
2023-09-27T03:45:34.000Z,90.0
2023-09-27T03:45:54.000Z,90.0
2023-09-27T03:46:14.000Z,90.0
2023-09-27T03:46:34.000Z,90.0
2023-09-27T03:46:54.000Z,90.0
2023-09-27T03:47:14.000Z,91.0
2023-09-27T03:47:34.000Z,91.0
2023-09-27T03:47:54.000Z,91.0
2023-09-27T03:48:14.000Z,91.0
2023-09-27T03:48:34.000Z,91.0
2023-09-27T03:48:55.000Z,91.0
2023-09-27T03:49:13.000Z,91.0
2023-09-27T03:49:33.000Z,91.0
2023-09-27T03:50:13.000Z,91.0
2023-09-27T03:50:33.000Z,91.0
2023-09-27T03:50:53.000Z,91.0
2023-09-27T03:51:13.000Z,91.0
2023-09-27T03:51:33.000Z,91.0
2023-09-27T03:51:53.000Z,91.0
2023-09-27T03:52:13.000Z,91.0
2023-09-27T03:52:33.000Z,91.0
2023-09-27T03:52:53.000Z,91.0
2023-09-27T03:53:13.000Z,91.0
2023-09-27T03:53:33.000Z,91.0
2023-09-27T03:54:13.000Z,91.0
2023-09-27T03:54:33.000Z,91.0
2023-09-27T03:54:53.000Z,91.0
2023-09-27T03:55:13.000Z,91.0
2023-09-27T03:55:33.000Z,91.0
2023-09-27T03:55:54.000Z,91.0
2023-09-27T03:56:13.000Z,91.0
2023-09-27T03:56:33.000Z,91.0
2023-09-27T03:57:13.000Z,91.0
2023-09-27T03:57:33.000Z,91.0
2023-09-27T03:57:53.000Z,91.0
2023-09-27T03:58:13.000Z,91.0
2023-09-27T03:58:33.000Z,91.0
2023-09-27T03:58:54.000Z,92.0
2023-09-27T03:59:13.000Z,92.0
2023-09-27T03:59:33.000Z,92.0
2023-09-27T04:00:13.000Z,92.0
2023-09-27T04:00:33.000Z,92.0
2023-09-27T04:00:53.000Z,92.0
2023-09-27T04:01:13.000Z,92.0
2023-09-27T04:01:33.000Z,92.0
2023-09-27T04:01:54.000Z,91.0
2023-09-27T04:02:13.000Z,91.0
2023-09-27T04:02:33.000Z,91.0
2023-09-27T04:02:54.000Z,91.0
2023-09-27T04:03:13.000Z,91.0
2023-09-27T04:03:34.000Z,91.0
2023-09-27T04:03:54.000Z,91.0
2023-09-27T04:04:14.000Z,91.0
2023-09-27T04:04:34.000Z,91.0
2023-09-27T04:05:14.000Z,91.0
2023-09-27T04:05:34.000Z,91.0
2023-09-27T04:05:54.000Z,91.0
2023-09-27T04:06:14.000Z,91.0
2023-09-27T04:06:34.000Z,91.0
2023-09-27T04:06:54.000Z,91.0
2023-09-27T04:07:14.000Z,91.0
2023-09-27T04:07:34.000Z,91.0
2023-09-27T04:07:54.000Z,91.0
2023-09-27T04:08:14.000Z,91.0
2023-09-27T04:08:34.000Z,91.0
2023-09-27T04:08:54.000Z,91.0
2023-09-27T04:09:13.000Z,91.0
2023-09-27T04:09:33.000Z,91.0
2023-09-27T04:10:13.000Z,91.0
2023-09-27T04:10:33.000Z,91.0
2023-09-27T04:10:53.000Z,91.0
2023-09-27T04:11:13.000Z,91.0
2023-09-27T04:11:33.000Z,91.0
2023-09-27T04:11:53.000Z,91.0
2023-09-27T04:12:13.000Z,91.0
2023-09-27T04:12:33.000Z,91.0
2023-09-27T04:12:53.000Z,91.0
2023-09-27T04:13:13.000Z,92.0
2023-09-27T04:13:33.000Z,92.0
2023-09-27T04:13:53.000Z,92.0
2023-09-27T04:14:13.000Z,92.0
2023-09-27T04:14:33.000Z,92.0
2023-09-27T04:14:53.000Z,93.0
2023-09-27T04:15:13.000Z,93.0
2023-09-27T04:15:33.000Z,93.0
2023-09-27T04:15:54.000Z,93.0
2023-09-27T04:16:13.000Z,93.0
2023-09-27T04:16:33.000Z,93.0
2023-09-27T04:16:54.000Z,93.0
2023-09-27T04:17:13.000Z,92.0
2023-09-27T04:17:33.000Z,92.0
2023-09-27T04:17:54.000Z,92.0
2023-09-27T04:18:14.000Z,93.0
2023-09-27T04:18:34.000Z,93.0
2023-09-27T04:18:54.000Z,93.0
2023-09-27T04:19:14.000Z,93.0
2023-09-27T04:19:34.000Z,93.0
2023-09-27T04:20:14.000Z,93.0
2023-09-27T04:20:34.000Z,93.0
2023-09-27T04:20:54.000Z,93.0
2023-09-27T04:21:14.000Z,93.0
2023-09-27T04:21:34.000Z,93.0
2023-09-27T04:21:54.000Z,94.0
2023-09-27T04:22:14.000Z,94.0
2023-09-27T04:22:34.000Z,94.0
2023-09-27T04:23:14.000Z,94.0
2023-09-27T04:23:34.000Z,94.0
2023-09-27T04:23:54.000Z,94.0
2023-09-27T04:24:14.000Z,94.0
2023-09-27T04:24:34.000Z,94.0
2023-09-27T04:24:54.000Z,94.0
2023-09-27T04:25:14.000Z,94.0
2023-09-27T04:25:34.000Z,94.0
2023-09-27T04:25:54.000Z,94.0
2023-09-27T04:26:14.000Z,94.0
2023-09-27T04:26:34.000Z,94.0
2023-09-27T04:26:54.000Z,94.0
2023-09-27T04:27:14.000Z,94.0
2023-09-27T04:27:34.000Z,94.0
2023-09-27T04:27:54.000Z,94.0
2023-09-27T04:28:14.000Z,94.0
2023-09-27T04:28:34.000Z,94.0
2023-09-27T04:28:54.000Z,94.0
2023-09-27T04:29:14.000Z,94.0
2023-09-27T04:29:34.000Z,94.0
2023-09-27T04:30:14.000Z,94.0
2023-09-27T04:30:34.000Z,94.0
2023-09-27T04:30:54.000Z,94.0
2023-09-27T04:31:14.000Z,94.0
2023-09-27T04:31:34.000Z,94.0
2023-09-27T04:31:54.000Z,94.0
2023-09-27T04:32:14.000Z,94.0
2023-09-27T04:32:34.000Z,94.0
2023-09-27T04:32:54.000Z,94.0
2023-09-27T04:33:14.000Z,93.0
2023-09-27T04:33:34.000Z,93.0
2023-09-27T04:34:14.000Z,93.0
2023-09-27T04:34:34.000Z,93.0
2023-09-27T04:34:54.000Z,93.0
2023-09-27T04:35:14.000Z,93.0
2023-09-27T04:35:34.000Z,93.0
2023-09-27T04:35:54.000Z,93.0
2023-09-27T04:36:14.000Z,93.0
2023-09-27T04:36:34.000Z,93.0
2023-09-27T04:36:54.000Z,93.0
2023-09-27T04:37:14.000Z,93.0
2023-09-27T04:37:34.000Z,93.0
2023-09-27T04:37:54.000Z,93.0
2023-09-27T04:38:14.000Z,93.0
2023-09-27T04:38:34.000Z,93.0
2023-09-27T04:38:54.000Z,93.0
2023-09-27T04:39:14.000Z,93.0
2023-09-27T04:39:34.000Z,93.0
2023-09-27T04:40:14.000Z,93.0
2023-09-27T04:40:34.000Z,93.0
2023-09-27T04:40:54.000Z,93.0
2023-09-27T04:41:14.000Z,93.0
2023-09-27T04:41:34.000Z,93.0
2023-09-27T04:41:54.000Z,93.0